sensor_id;sensor_type;location;lat;lon;timestamp;P1;durP1;ratioP1;P2;durP2;ratioP2
52516;SDS011;59374;53.210;5.726;2022-07-01T00:00:37;5.88;;;1.55;;
52516;SDS011;59374;53.210;5.726;2022-07-01T00:03:03;4.80;;;1.60;;
52516;SDS011;59374;53.210;5.726;2022-07-01T00:05:29;4.50;;;1.55;;
52516;SDS011;59374;53.210;5.726;2022-07-01T00:07:55;4.97;;;1.83;;
52516;SDS011;59374;53.210;5.726;2022-07-01T00:10:20;4.18;;;1.50;;
52516;SDS011;59374;53.210;5.726;2022-07-01T00:12:46;5.22;;;1.50;;
52516;SDS011;59374;53.210;5.726;2022-07-01T00:15:12;3.20;;;1.40;;
52516;SDS011;59374;53.210;5.726;2022-07-01T00:17:38;3.63;;;1.73;;
52516;SDS011;59374;53.210;5.726;2022-07-01T00:20:05;3.88;;;1.65;;
52516;SDS011;59374;53.210;5.726;2022-07-01T00:22:32;5.32;;;1.60;;
52516;SDS011;59374;53.210;5.726;2022-07-01T00:24:58;3.03;;;1.63;;
52516;SDS011;59374;53.210;5.726;2022-07-01T00:27:24;3.95;;;1.75;;
52516;SDS011;59374;53.210;5.726;2022-07-01T00:29:50;3.53;;;1.52;;
52516;SDS011;59374;53.210;5.726;2022-07-01T00:32:15;3.58;;;1.60;;
52516;SDS011;59374;53.210;5.726;2022-07-01T00:34:41;4.63;;;1.58;;
52516;SDS011;59374;53.210;5.726;2022-07-01T00:37:07;4.30;;;2.03;;
52516;SDS011;59374;53.210;5.726;2022-07-01T00:39:32;3.75;;;1.85;;
52516;SDS011;59374;53.210;5.726;2022-07-01T00:42:00;3.10;;;1.85;;
52516;SDS011;59374;53.210;5.726;2022-07-01T00:44:28;3.72;;;1.60;;
52516;SDS011;59374;53.210;5.726;2022-07-01T00:46:54;5.15;;;1.70;;
52516;SDS011;59374;53.210;5.726;2022-07-01T00:49:21;3.75;;;1.90;;
52516;SDS011;59374;53.210;5.726;2022-07-01T00:51:47;4.07;;;1.80;;
52516;SDS011;59374;53.210;5.726;2022-07-01T00:54:13;4.43;;;1.70;;
52516;SDS011;59374;53.210;5.726;2022-07-01T00:56:39;3.83;;;2.28;;
52516;SDS011;59374;53.210;5.726;2022-07-01T00:59:04;4.28;;;2.22;;
52516;SDS011;59374;53.210;5.726;2022-07-01T01:01:30;5.30;;;2.83;;
52516;SDS011;59374;53.210;5.726;2022-07-01T01:03:56;7.60;;;2.95;;
52516;SDS011;59374;53.210;5.726;2022-07-01T01:06:22;5.40;;;3.00;;
52516;SDS011;59374;53.210;5.726;2022-07-01T01:08:47;6.43;;;3.25;;
52516;SDS011;59374;53.210;5.726;2022-07-01T01:11:16;6.38;;;2.90;;
52516;SDS011;59374;53.210;5.726;2022-07-01T01:13:42;5.05;;;2.92;;
52516;SDS011;59374;53.210;5.726;2022-07-01T01:16:14;6.90;;;3.20;;
52516;SDS011;59374;53.210;5.726;2022-07-01T01:18:44;7.70;;;3.35;;
52516;SDS011;59374;53.210;5.726;2022-07-01T01:21:10;6.20;;;3.22;;
52516;SDS011;59374;53.210;5.726;2022-07-01T01:23:36;6.05;;;3.17;;
52516;SDS011;59374;53.210;5.726;2022-07-01T01:26:01;5.72;;;3.72;;
52516;SDS011;59374;53.210;5.726;2022-07-01T01:28:27;7.13;;;3.97;;
52516;SDS011;59374;53.210;5.726;2022-07-01T01:30:53;6.82;;;3.70;;
52516;SDS011;59374;53.210;5.726;2022-07-01T01:33:19;7.32;;;4.13;;
52516;SDS011;59374;53.210;5.726;2022-07-01T01:35:45;5.50;;;4.05;;
52516;SDS011;59374;53.210;5.726;2022-07-01T01:38:11;7.63;;;4.57;;
52516;SDS011;59374;53.210;5.726;2022-07-01T01:40:37;7.05;;;4.57;;
52516;SDS011;59374;53.210;5.726;2022-07-01T01:43:02;6.40;;;4.15;;
52516;SDS011;59374;53.210;5.726;2022-07-01T01:45:28;7.15;;;4.35;;
52516;SDS011;59374;53.210;5.726;2022-07-01T01:47:54;5.97;;;4.05;;
52516;SDS011;59374;53.210;5.726;2022-07-01T01:50:20;6.40;;;4.13;;
52516;SDS011;59374;53.210;5.726;2022-07-01T01:52:46;5.45;;;3.40;;
52516;SDS011;59374;53.210;5.726;2022-07-01T01:55:11;6.10;;;4.00;;
52516;SDS011;59374;53.210;5.726;2022-07-01T01:57:38;5.28;;;3.80;;
52516;SDS011;59374;53.210;5.726;2022-07-01T02:00:06;7.50;;;4.15;;
52516;SDS011;59374;53.210;5.726;2022-07-01T02:02:33;5.38;;;3.20;;
52516;SDS011;59374;53.210;5.726;2022-07-01T02:05:01;4.45;;;2.60;;
52516;SDS011;59374;53.210;5.726;2022-07-01T02:07:31;4.32;;;1.95;;
52516;SDS011;59374;53.210;5.726;2022-07-01T02:09:57;3.20;;;1.67;;
52516;SDS011;59374;53.210;5.726;2022-07-01T02:12:23;4.20;;;2.10;;
52516;SDS011;59374;53.210;5.726;2022-07-01T02:14:48;4.30;;;1.80;;
52516;SDS011;59374;53.210;5.726;2022-07-01T02:17:14;2.83;;;1.50;;
52516;SDS011;59374;53.210;5.726;2022-07-01T02:19:40;3.90;;;1.55;;
52516;SDS011;59374;53.210;5.726;2022-07-01T02:22:05;3.92;;;1.60;;
52516;SDS011;59374;53.210;5.726;2022-07-01T02:24:31;2.88;;;1.60;;
52516;SDS011;59374;53.210;5.726;2022-07-01T02:26:56;4.90;;;2.17;;
52516;SDS011;59374;53.210;5.726;2022-07-01T02:29:22;3.33;;;1.60;;
52516;SDS011;59374;53.210;5.726;2022-07-01T02:31:48;4.93;;;1.92;;
52516;SDS011;59374;53.210;5.726;2022-07-01T02:34:13;3.47;;;2.17;;
52516;SDS011;59374;53.210;5.726;2022-07-01T02:36:39;4.80;;;2.30;;
52516;SDS011;59374;53.210;5.726;2022-07-01T02:41:30;3.92;;;2.45;;
52516;SDS011;59374;53.210;5.726;2022-07-01T02:43:55;4.38;;;2.50;;
52516;SDS011;59374;53.210;5.726;2022-07-01T02:46:21;4.97;;;2.30;;
52516;SDS011;59374;53.210;5.726;2022-07-01T02:48:47;4.32;;;2.50;;
52516;SDS011;59374;53.210;5.726;2022-07-01T02:51:13;6.05;;;2.58;;
52516;SDS011;59374;53.210;5.726;2022-07-01T02:53:39;6.07;;;2.70;;
52516;SDS011;59374;53.210;5.726;2022-07-01T02:56:04;4.85;;;2.60;;
52516;SDS011;59374;53.210;5.726;2022-07-01T02:58:30;4.43;;;2.65;;
52516;SDS011;59374;53.210;5.726;2022-07-01T03:00:56;4.38;;;2.97;;
52516;SDS011;59374;53.210;5.726;2022-07-01T03:03:21;4.10;;;2.35;;
52516;SDS011;59374;53.210;5.726;2022-07-01T03:05:47;5.30;;;3.20;;
52516;SDS011;59374;53.210;5.726;2022-07-01T03:08:14;8.23;;;3.50;;
52516;SDS011;59374;53.210;5.726;2022-07-01T03:10:39;6.43;;;4.03;;
52516;SDS011;59374;53.210;5.726;2022-07-01T03:13:05;8.55;;;4.30;;
52516;SDS011;59374;53.210;5.726;2022-07-01T03:15:31;6.90;;;4.80;;
52516;SDS011;59374;53.210;5.726;2022-07-01T03:17:56;9.38;;;4.93;;
52516;SDS011;59374;53.210;5.726;2022-07-01T03:20:22;7.97;;;5.72;;
52516;SDS011;59374;53.210;5.726;2022-07-01T03:22:48;9.20;;;6.05;;
52516;SDS011;59374;53.210;5.726;2022-07-01T03:25:15;12.02;;;6.28;;
52516;SDS011;59374;53.210;5.726;2022-07-01T03:27:40;10.43;;;6.38;;
52516;SDS011;59374;53.210;5.726;2022-07-01T03:30:10;11.07;;;6.57;;
52516;SDS011;59374;53.210;5.726;2022-07-01T03:32:38;8.27;;;5.88;;
52516;SDS011;59374;53.210;5.726;2022-07-01T03:35:03;9.55;;;6.13;;
52516;SDS011;59374;53.210;5.726;2022-07-01T03:37:49;9.93;;;5.60;;
52516;SDS011;59374;53.210;5.726;2022-07-01T03:40:15;9.07;;;5.53;;
52516;SDS011;59374;53.210;5.726;2022-07-01T03:42:41;12.93;;;5.50;;
52516;SDS011;59374;53.210;5.726;2022-07-01T03:45:07;8.45;;;5.15;;
52516;SDS011;59374;53.210;5.726;2022-07-01T03:47:33;7.45;;;4.43;;
52516;SDS011;59374;53.210;5.726;2022-07-01T03:49:58;10.05;;;4.53;;
52516;SDS011;59374;53.210;5.726;2022-07-01T03:52:24;9.73;;;4.60;;
52516;SDS011;59374;53.210;5.726;2022-07-01T03:54:50;8.27;;;5.05;;
52516;SDS011;59374;53.210;5.726;2022-07-01T03:59:41;9.77;;;4.57;;
52516;SDS011;59374;53.210;5.726;2022-07-01T04:02:07;11.05;;;4.38;;
52516;SDS011;59374;53.210;5.726;2022-07-01T04:06:59;7.97;;;4.40;;
52516;SDS011;59374;53.210;5.726;2022-07-01T04:09:26;7.68;;;4.53;;
52516;SDS011;59374;53.210;5.726;2022-07-01T04:11:53;12.45;;;4.32;;
52516;SDS011;59374;53.210;5.726;2022-07-01T04:14:19;8.07;;;4.18;;
52516;SDS011;59374;53.210;5.726;2022-07-01T04:16:45;6.95;;;3.60;;
52516;SDS011;59374;53.210;5.726;2022-07-01T04:19:11;8.82;;;3.53;;
52516;SDS011;59374;53.210;5.726;2022-07-01T04:21:39;8.25;;;3.53;;
52516;SDS011;59374;53.210;5.726;2022-07-01T04:24:23;7.00;;;2.97;;
52516;SDS011;59374;53.210;5.726;2022-07-01T04:26:49;7.32;;;3.28;;
52516;SDS011;59374;53.210;5.726;2022-07-01T04:29:16;7.57;;;3.38;;
52516;SDS011;59374;53.210;5.726;2022-07-01T04:34:07;8.40;;;3.50;;
52516;SDS011;59374;53.210;5.726;2022-07-01T04:36:34;6.20;;;3.13;;
52516;SDS011;59374;53.210;5.726;2022-07-01T04:39:01;7.82;;;2.85;;
52516;SDS011;59374;53.210;5.726;2022-07-01T04:41:27;8.50;;;3.33;;
52516;SDS011;59374;53.210;5.726;2022-07-01T04:44:11;12.95;;;3.15;;
52516;SDS011;59374;53.210;5.726;2022-07-01T04:49:03;9.05;;;3.25;;
52516;SDS011;59374;53.210;5.726;2022-07-01T04:53:55;11.90;;;3.38;;
52516;SDS011;59374;53.210;5.726;2022-07-01T04:56:21;6.55;;;2.88;;
52516;SDS011;59374;53.210;5.726;2022-07-01T04:58:47;7.20;;;3.00;;
52516;SDS011;59374;53.210;5.726;2022-07-01T05:01:13;9.38;;;3.05;;
52516;SDS011;59374;53.210;5.726;2022-07-01T05:06:05;10.05;;;3.60;;
52516;SDS011;59374;53.210;5.726;2022-07-01T05:10:56;8.35;;;3.13;;
52516;SDS011;59374;53.210;5.726;2022-07-01T05:15:48;7.10;;;3.33;;
52516;SDS011;59374;53.210;5.726;2022-07-01T05:20:58;9.75;;;3.95;;
52516;SDS011;59374;53.210;5.726;2022-07-01T05:23:42;9.57;;;4.10;;
52516;SDS011;59374;53.210;5.726;2022-07-01T05:28:33;12.23;;;4.40;;
52516;SDS011;59374;53.210;5.726;2022-07-01T05:30:58;10.75;;;3.97;;
52516;SDS011;59374;53.210;5.726;2022-07-01T05:33:24;8.80;;;4.00;;
52516;SDS011;59374;53.210;5.726;2022-07-01T05:35:52;10.98;;;4.45;;
52516;SDS011;59374;53.210;5.726;2022-07-01T05:38:18;10.52;;;4.35;;
52516;SDS011;59374;53.210;5.726;2022-07-01T05:40:44;11.77;;;4.90;;
52516;SDS011;59374;53.210;5.726;2022-07-01T05:43:10;8.68;;;4.03;;
52516;SDS011;59374;53.210;5.726;2022-07-01T05:45:36;9.55;;;4.70;;
52516;SDS011;59374;53.210;5.726;2022-07-01T05:48:02;11.00;;;5.32;;
52516;SDS011;59374;53.210;5.726;2022-07-01T05:50:27;7.72;;;4.70;;
52516;SDS011;59374;53.210;5.726;2022-07-01T05:52:53;12.07;;;5.00;;
52516;SDS011;59374;53.210;5.726;2022-07-01T05:55:19;10.43;;;5.28;;
52516;SDS011;59374;53.210;5.726;2022-07-01T05:57:44;12.05;;;5.35;;
52516;SDS011;59374;53.210;5.726;2022-07-01T06:00:10;9.07;;;4.95;;
52516;SDS011;59374;53.210;5.726;2022-07-01T06:02:36;12.32;;;5.20;;
52516;SDS011;59374;53.210;5.726;2022-07-01T06:05:02;11.00;;;5.80;;
52516;SDS011;59374;53.210;5.726;2022-07-01T06:07:28;13.05;;;6.55;;
52516;SDS011;59374;53.210;5.726;2022-07-01T06:09:55;11.68;;;6.10;;
52516;SDS011;59374;53.210;5.726;2022-07-01T06:12:21;11.10;;;6.50;;
52516;SDS011;59374;53.210;5.726;2022-07-01T06:14:47;13.02;;;5.82;;
52516;SDS011;59374;53.210;5.726;2022-07-01T06:17:12;17.40;;;6.78;;
52516;SDS011;59374;53.210;5.726;2022-07-01T06:19:38;13.63;;;7.20;;
52516;SDS011;59374;53.210;5.726;2022-07-01T06:22:05;13.95;;;6.00;;
52516;SDS011;59374;53.210;5.726;2022-07-01T06:24:30;15.73;;;6.32;;
52516;SDS011;59374;53.210;5.726;2022-07-01T06:26:56;13.18;;;7.13;;
52516;SDS011;59374;53.210;5.726;2022-07-01T06:29:22;11.05;;;6.13;;
52516;SDS011;59374;53.210;5.726;2022-07-01T06:31:48;16.02;;;7.35;;
52516;SDS011;59374;53.210;5.726;2022-07-01T06:34:14;11.88;;;6.53;;
52516;SDS011;59374;53.210;5.726;2022-07-01T06:36:39;15.25;;;7.10;;
52516;SDS011;59374;53.210;5.726;2022-07-01T06:39:05;15.75;;;6.88;;
52516;SDS011;59374;53.210;5.726;2022-07-01T06:41:31;13.65;;;6.30;;
52516;SDS011;59374;53.210;5.726;2022-07-01T06:43:57;13.10;;;6.70;;
52516;SDS011;59374;53.210;5.726;2022-07-01T06:46:25;9.48;;;5.53;;
52516;SDS011;59374;53.210;5.726;2022-07-01T06:48:51;12.10;;;6.07;;
52516;SDS011;59374;53.210;5.726;2022-07-01T06:51:17;12.35;;;6.38;;
52516;SDS011;59374;53.210;5.726;2022-07-01T06:53:43;10.75;;;5.47;;
52516;SDS011;59374;53.210;5.726;2022-07-01T06:56:10;10.82;;;5.18;;
52516;SDS011;59374;53.210;5.726;2022-07-01T06:58:36;13.93;;;5.15;;
52516;SDS011;59374;53.210;5.726;2022-07-01T07:01:03;9.30;;;5.55;;
52516;SDS011;59374;53.210;5.726;2022-07-01T07:03:29;13.80;;;5.03;;
52516;SDS011;59374;53.210;5.726;2022-07-01T07:05:55;12.00;;;4.60;;
52516;SDS011;59374;53.210;5.726;2022-07-01T07:08:21;8.52;;;3.72;;
52516;SDS011;59374;53.210;5.726;2022-07-01T07:10:46;11.18;;;4.07;;
52516;SDS011;59374;53.210;5.726;2022-07-01T07:13:12;9.55;;;3.72;;
52516;SDS011;59374;53.210;5.726;2022-07-01T07:15:37;7.68;;;3.45;;
52516;SDS011;59374;53.210;5.726;2022-07-01T07:18:06;9.55;;;3.13;;
52516;SDS011;59374;53.210;5.726;2022-07-01T07:20:33;8.98;;;3.03;;
52516;SDS011;59374;53.210;5.726;2022-07-01T07:22:59;9.65;;;3.65;;
52516;SDS011;59374;53.210;5.726;2022-07-01T07:25:25;8.07;;;3.60;;
52516;SDS011;59374;53.210;5.726;2022-07-01T07:27:51;7.75;;;3.83;;
52516;SDS011;59374;53.210;5.726;2022-07-01T07:30:17;7.32;;;3.20;;
52516;SDS011;59374;53.210;5.726;2022-07-01T07:32:43;7.80;;;3.47;;
52516;SDS011;59374;53.210;5.726;2022-07-01T07:35:09;15.88;;;3.40;;
52516;SDS011;59374;53.210;5.726;2022-07-01T07:37:35;10.98;;;3.47;;
52516;SDS011;59374;53.210;5.726;2022-07-01T07:40:02;7.32;;;3.05;;
52516;SDS011;59374;53.210;5.726;2022-07-01T07:42:31;6.53;;;3.10;;
52516;SDS011;59374;53.210;5.726;2022-07-01T07:44:57;8.32;;;2.67;;
52516;SDS011;59374;53.210;5.726;2022-07-01T07:47:23;8.57;;;3.50;;
52516;SDS011;59374;53.210;5.726;2022-07-01T07:49:48;7.53;;;3.00;;
52516;SDS011;59374;53.210;5.726;2022-07-01T07:52:14;7.22;;;2.90;;
52516;SDS011;59374;53.210;5.726;2022-07-01T07:54:39;7.32;;;2.80;;
52516;SDS011;59374;53.210;5.726;2022-07-01T07:57:05;7.25;;;2.40;;
52516;SDS011;59374;53.210;5.726;2022-07-01T07:59:33;8.75;;;2.38;;
52516;SDS011;59374;53.210;5.726;2022-07-01T08:01:58;4.93;;;2.30;;
52516;SDS011;59374;53.210;5.726;2022-07-01T08:04:24;6.00;;;2.20;;
52516;SDS011;59374;53.210;5.726;2022-07-01T08:06:50;7.38;;;2.53;;
52516;SDS011;59374;53.210;5.726;2022-07-01T08:09:15;8.45;;;2.35;;
52516;SDS011;59374;53.210;5.726;2022-07-01T08:11:41;8.65;;;2.45;;
52516;SDS011;59374;53.210;5.726;2022-07-01T08:14:07;7.22;;;2.50;;
52516;SDS011;59374;53.210;5.726;2022-07-01T08:16:32;5.70;;;1.98;;
52516;SDS011;59374;53.210;5.726;2022-07-01T08:18:58;6.43;;;2.10;;
52516;SDS011;59374;53.210;5.726;2022-07-01T08:21:24;7.32;;;2.40;;
52516;SDS011;59374;53.210;5.726;2022-07-01T08:23:50;6.47;;;2.10;;
52516;SDS011;59374;53.210;5.726;2022-07-01T08:26:15;4.88;;;2.17;;
52516;SDS011;59374;53.210;5.726;2022-07-01T08:28:42;4.47;;;2.03;;
52516;SDS011;59374;53.210;5.726;2022-07-01T08:31:08;5.75;;;1.90;;
52516;SDS011;59374;53.210;5.726;2022-07-01T08:33:34;6.05;;;2.28;;
52516;SDS011;59374;53.210;5.726;2022-07-01T08:36:02;6.20;;;2.30;;
52516;SDS011;59374;53.210;5.726;2022-07-01T08:38:28;7.75;;;2.25;;
52516;SDS011;59374;53.210;5.726;2022-07-01T08:40:54;6.68;;;2.28;;
52516;SDS011;59374;53.210;5.726;2022-07-01T08:43:20;6.82;;;2.22;;
52516;SDS011;59374;53.210;5.726;2022-07-01T08:45:45;7.68;;;1.90;;
52516;SDS011;59374;53.210;5.726;2022-07-01T08:48:12;6.25;;;2.00;;
52516;SDS011;59374;53.210;5.726;2022-07-01T08:50:39;4.75;;;2.13;;
52516;SDS011;59374;53.210;5.726;2022-07-01T08:53:06;7.75;;;1.95;;
52516;SDS011;59374;53.210;5.726;2022-07-01T08:55:34;4.95;;;2.17;;
52516;SDS011;59374;53.210;5.726;2022-07-01T08:58:19;5.78;;;1.83;;
52516;SDS011;59374;53.210;5.726;2022-07-01T09:00:49;5.65;;;1.77;;
52516;SDS011;59374;53.210;5.726;2022-07-01T09:03:15;3.28;;;1.73;;
52516;SDS011;59374;53.210;5.726;2022-07-01T09:05:50;3.85;;;1.80;;
52516;SDS011;59374;53.210;5.726;2022-07-01T09:08:16;2.95;;;1.40;;
52516;SDS011;59374;53.210;5.726;2022-07-01T09:10:42;7.50;;;1.80;;
52516;SDS011;59374;53.210;5.726;2022-07-01T09:13:09;4.50;;;1.50;;
52516;SDS011;59374;53.210;5.726;2022-07-01T09:15:39;3.95;;;1.67;;
52516;SDS011;59374;53.210;5.726;2022-07-01T09:20:39;4.57;;;1.90;;
52516;SDS011;59374;53.210;5.726;2022-07-01T09:23:17;5.35;;;1.60;;
52516;SDS011;59374;53.210;5.726;2022-07-01T09:25:47;7.90;;;1.60;;
52516;SDS011;59374;53.210;5.726;2022-07-01T09:30:49;4.43;;;1.35;;
52516;SDS011;59374;53.210;5.726;2022-07-01T09:33:18;5.57;;;1.33;;
52516;SDS011;59374;53.210;5.726;2022-07-01T09:35:45;4.15;;;1.50;;
52516;SDS011;59374;53.210;5.726;2022-07-01T09:38:15;3.75;;;1.30;;
52516;SDS011;59374;53.210;5.726;2022-07-01T09:43:18;5.28;;;1.90;;
52516;SDS011;59374;53.210;5.726;2022-07-01T09:48:48;6.85;;;2.47;;
52516;SDS011;59374;53.210;5.726;2022-07-01T09:51:14;5.97;;;1.60;;
52516;SDS011;59374;53.210;5.726;2022-07-01T09:53:41;6.65;;;1.77;;
52516;SDS011;59374;53.210;5.726;2022-07-01T09:56:08;3.95;;;1.90;;
52516;SDS011;59374;53.210;5.726;2022-07-01T09:58:34;3.90;;;1.80;;
52516;SDS011;59374;53.210;5.726;2022-07-01T10:01:01;4.90;;;1.90;;
52516;SDS011;59374;53.210;5.726;2022-07-01T10:03:28;6.18;;;2.25;;
52516;SDS011;59374;53.210;5.726;2022-07-01T10:05:57;4.63;;;1.80;;
52516;SDS011;59374;53.210;5.726;2022-07-01T10:14:49;8.10;;;2.10;;
52516;SDS011;59374;53.210;5.726;2022-07-01T10:17:26;5.75;;;2.40;;
52516;SDS011;59374;53.210;5.726;2022-07-01T10:19:56;6.50;;;2.40;;
52516;SDS011;59374;53.210;5.726;2022-07-01T10:22:30;4.43;;;2.00;;
52516;SDS011;59374;53.210;5.726;2022-07-01T10:25:09;4.82;;;2.28;;
52516;SDS011;59374;53.210;5.726;2022-07-01T10:36:13;7.53;;;2.33;;
52516;SDS011;59374;53.210;5.726;2022-07-01T10:41:31;4.10;;;1.95;;
52516;SDS011;59374;53.210;5.726;2022-07-01T10:43:58;4.05;;;1.60;;
52516;SDS011;59374;53.210;5.726;2022-07-01T11:02:29;4.50;;;1.80;;
52516;SDS011;59374;53.210;5.726;2022-07-01T11:05:16;3.55;;;1.90;;
52516;SDS011;59374;53.210;5.726;2022-07-01T11:07:41;3.20;;;1.53;;
52516;SDS011;59374;53.210;5.726;2022-07-01T11:10:10;5.05;;;1.80;;
52516;SDS011;59374;53.210;5.726;2022-07-01T11:12:37;5.18;;;1.95;;
52516;SDS011;59374;53.210;5.726;2022-07-01T11:15:05;3.80;;;1.70;;
52516;SDS011;59374;53.210;5.726;2022-07-01T11:17:31;3.90;;;1.70;;
52516;SDS011;59374;53.210;5.726;2022-07-01T11:19:58;5.63;;;1.77;;
52516;SDS011;59374;53.210;5.726;2022-07-01T11:22:27;6.93;;;1.80;;
52516;SDS011;59374;53.210;5.726;2022-07-01T11:24:56;5.18;;;1.52;;
52516;SDS011;59374;53.210;5.726;2022-07-01T11:27:23;3.75;;;1.60;;
52516;SDS011;59374;53.210;5.726;2022-07-01T11:29:53;3.90;;;1.42;;
52516;SDS011;59374;53.210;5.726;2022-07-01T11:32:27;2.38;;;1.30;;
52516;SDS011;59374;53.210;5.726;2022-07-01T11:34:58;4.03;;;1.60;;
52516;SDS011;59374;53.210;5.726;2022-07-01T11:37:26;4.95;;;1.80;;
52516;SDS011;59374;53.210;5.726;2022-07-01T11:40:12;5.35;;;1.88;;
52516;SDS011;59374;53.210;5.726;2022-07-01T11:42:41;2.17;;;1.30;;
52516;SDS011;59374;53.210;5.726;2022-07-01T11:45:07;3.85;;;1.40;;
52516;SDS011;59374;53.210;5.726;2022-07-01T11:47:33;8.43;;;1.50;;
52516;SDS011;59374;53.210;5.726;2022-07-01T11:49:59;5.55;;;1.50;;
52516;SDS011;59374;53.210;5.726;2022-07-01T11:52:25;4.75;;;1.30;;
52516;SDS011;59374;53.210;5.726;2022-07-01T11:54:55;5.03;;;1.50;;
52516;SDS011;59374;53.210;5.726;2022-07-01T11:57:25;2.88;;;1.20;;
52516;SDS011;59374;53.210;5.726;2022-07-01T11:59:53;4.40;;;1.30;;
52516;SDS011;59374;53.210;5.726;2022-07-01T12:02:21;4.50;;;1.45;;
52516;SDS011;59374;53.210;5.726;2022-07-01T12:04:48;7.45;;;1.52;;
52516;SDS011;59374;53.210;5.726;2022-07-01T12:07:16;4.07;;;1.45;;
52516;SDS011;59374;53.210;5.726;2022-07-01T12:09:46;3.75;;;1.10;;
52516;SDS011;59374;53.210;5.726;2022-07-01T12:12:19;6.68;;;1.67;;
52516;SDS011;59374;53.210;5.726;2022-07-01T12:14:54;6.13;;;1.48;;
52516;SDS011;59374;53.210;5.726;2022-07-01T12:17:22;5.25;;;1.27;;
52516;SDS011;59374;53.210;5.726;2022-07-01T12:19:49;5.28;;;1.33;;
52516;SDS011;59374;53.210;5.726;2022-07-01T12:22:16;4.85;;;1.60;;
52516;SDS011;59374;53.210;5.726;2022-07-01T12:24:48;4.65;;;1.50;;
52516;SDS011;59374;53.210;5.726;2022-07-01T12:27:15;5.95;;;1.45;;
52516;SDS011;59374;53.210;5.726;2022-07-01T12:32:22;4.30;;;1.48;;
52516;SDS011;59374;53.210;5.726;2022-07-01T12:37:16;10.43;;;2.58;;
52516;SDS011;59374;53.210;5.726;2022-07-01T12:42:19;2.63;;;1.23;;
52516;SDS011;59374;53.210;5.726;2022-07-01T12:44:53;5.05;;;1.40;;
52516;SDS011;59374;53.210;5.726;2022-07-01T12:50:25;6.05;;;1.92;;
52516;SDS011;59374;53.210;5.726;2022-07-01T12:53:05;2.83;;;1.25;;
52516;SDS011;59374;53.210;5.726;2022-07-01T12:55:35;3.80;;;1.70;;
52516;SDS011;59374;53.210;5.726;2022-07-01T12:58:01;6.22;;;1.63;;
52516;SDS011;59374;53.210;5.726;2022-07-01T13:00:29;7.50;;;2.30;;
52516;SDS011;59374;53.210;5.726;2022-07-01T13:02:56;7.38;;;1.60;;
52516;SDS011;59374;53.210;5.726;2022-07-01T13:05:23;6.45;;;1.80;;
52516;SDS011;59374;53.210;5.726;2022-07-01T13:07:49;8.40;;;1.85;;
52516;SDS011;59374;53.210;5.726;2022-07-01T13:10:15;6.47;;;1.55;;
52516;SDS011;59374;53.210;5.726;2022-07-01T13:12:42;5.55;;;1.58;;
52516;SDS011;59374;53.210;5.726;2022-07-01T13:15:12;3.65;;;1.30;;
52516;SDS011;59374;53.210;5.726;2022-07-01T13:17:39;5.82;;;1.85;;
52516;SDS011;59374;53.210;5.726;2022-07-01T13:20:05;5.95;;;2.20;;
52516;SDS011;59374;53.210;5.726;2022-07-01T13:22:32;5.70;;;1.73;;
52516;SDS011;59374;53.210;5.726;2022-07-01T13:24:58;3.80;;;1.45;;
52516;SDS011;59374;53.210;5.726;2022-07-01T13:27:24;6.18;;;1.80;;
52516;SDS011;59374;53.210;5.726;2022-07-01T13:29:50;3.85;;;1.60;;
52516;SDS011;59374;53.210;5.726;2022-07-01T13:32:15;5.80;;;1.60;;
52516;SDS011;59374;53.210;5.726;2022-07-01T13:34:41;6.30;;;1.55;;
52516;SDS011;59374;53.210;5.726;2022-07-01T13:37:07;5.38;;;1.95;;
52516;SDS011;59374;53.210;5.726;2022-07-01T13:39:33;7.50;;;1.85;;
52516;SDS011;59374;53.210;5.726;2022-07-01T13:41:59;5.15;;;1.27;;
52516;SDS011;59374;53.210;5.726;2022-07-01T13:44:25;4.20;;;1.60;;
52516;SDS011;59374;53.210;5.726;2022-07-01T13:46:50;6.18;;;1.55;;
52516;SDS011;59374;53.210;5.726;2022-07-01T13:49:16;5.32;;;1.55;;
52516;SDS011;59374;53.210;5.726;2022-07-01T13:51:42;5.78;;;1.55;;
52516;SDS011;59374;53.210;5.726;2022-07-01T13:54:07;6.25;;;1.80;;
52516;SDS011;59374;53.210;5.726;2022-07-01T13:56:33;6.13;;;1.60;;
52516;SDS011;59374;53.210;5.726;2022-07-01T13:58:59;5.93;;;2.08;;
52516;SDS011;59374;53.210;5.726;2022-07-01T14:01:24;6.50;;;1.77;;
52516;SDS011;59374;53.210;5.726;2022-07-01T14:03:50;5.43;;;1.50;;
52516;SDS011;59374;53.210;5.726;2022-07-01T14:06:17;6.30;;;1.40;;
52516;SDS011;59374;53.210;5.726;2022-07-01T14:08:43;6.78;;;1.63;;
52516;SDS011;59374;53.210;5.726;2022-07-01T14:11:09;7.95;;;1.52;;
52516;SDS011;59374;53.210;5.726;2022-07-01T14:13:35;5.15;;;1.60;;
52516;SDS011;59374;53.210;5.726;2022-07-01T14:16:01;7.90;;;1.80;;
52516;SDS011;59374;53.210;5.726;2022-07-01T14:18:27;7.00;;;1.63;;
52516;SDS011;59374;53.210;5.726;2022-07-01T14:20:53;4.03;;;1.30;;
52516;SDS011;59374;53.210;5.726;2022-07-01T14:23:19;4.88;;;1.52;;
52516;SDS011;59374;53.210;5.726;2022-07-01T14:25:44;6.65;;;1.73;;
52516;SDS011;59374;53.210;5.726;2022-07-01T14:28:10;7.28;;;1.65;;
52516;SDS011;59374;53.210;5.726;2022-07-01T14:30:37;3.83;;;1.25;;
52516;SDS011;59374;53.210;5.726;2022-07-01T14:33:02;4.63;;;1.50;;
52516;SDS011;59374;53.210;5.726;2022-07-01T14:35:29;5.15;;;1.50;;
52516;SDS011;59374;53.210;5.726;2022-07-01T14:37:55;5.25;;;1.42;;
52516;SDS011;59374;53.210;5.726;2022-07-01T14:40:22;4.55;;;1.50;;
52516;SDS011;59374;53.210;5.726;2022-07-01T14:42:48;2.80;;;1.20;;
52516;SDS011;59374;53.210;5.726;2022-07-01T14:45:14;3.80;;;1.60;;
52516;SDS011;59374;53.210;5.726;2022-07-01T14:47:40;6.03;;;1.70;;
52516;SDS011;59374;53.210;5.726;2022-07-01T14:50:06;5.32;;;1.50;;
52516;SDS011;59374;53.210;5.726;2022-07-01T14:52:33;4.15;;;1.30;;
52516;SDS011;59374;53.210;5.726;2022-07-01T14:54:59;4.55;;;1.33;;
52516;SDS011;59374;53.210;5.726;2022-07-01T14:57:25;4.28;;;1.50;;
52516;SDS011;59374;53.210;5.726;2022-07-01T14:59:50;7.78;;;1.40;;
52516;SDS011;59374;53.210;5.726;2022-07-01T15:02:16;4.53;;;1.40;;
52516;SDS011;59374;53.210;5.726;2022-07-01T15:04:43;6.25;;;1.15;;
52516;SDS011;59374;53.210;5.726;2022-07-01T15:07:08;4.78;;;1.30;;
52516;SDS011;59374;53.210;5.726;2022-07-01T15:09:34;2.53;;;0.93;;
52516;SDS011;59374;53.210;5.726;2022-07-01T15:12:00;3.85;;;1.10;;
52516;SDS011;59374;53.210;5.726;2022-07-01T15:14:25;4.15;;;1.50;;
52516;SDS011;59374;53.210;5.726;2022-07-01T15:16:51;8.20;;;1.55;;
52516;SDS011;59374;53.210;5.726;2022-07-01T15:19:17;4.03;;;1.30;;
52516;SDS011;59374;53.210;5.726;2022-07-01T15:21:42;4.38;;;1.30;;
52516;SDS011;59374;53.210;5.726;2022-07-01T15:24:08;4.38;;;1.30;;
52516;SDS011;59374;53.210;5.726;2022-07-01T15:26:34;5.55;;;1.80;;
52516;SDS011;59374;53.210;5.726;2022-07-01T15:29:00;6.10;;;1.40;;
52516;SDS011;59374;53.210;5.726;2022-07-01T15:31:25;4.78;;;1.67;;
52516;SDS011;59374;53.210;5.726;2022-07-01T15:33:52;3.92;;;1.35;;
52516;SDS011;59374;53.210;5.726;2022-07-01T15:36:19;5.72;;;1.55;;
52516;SDS011;59374;53.210;5.726;2022-07-01T15:38:45;3.75;;;1.40;;
52516;SDS011;59374;53.210;5.726;2022-07-01T15:41:10;2.42;;;1.40;;
52516;SDS011;59374;53.210;5.726;2022-07-01T15:43:36;3.70;;;1.17;;
52516;SDS011;59374;53.210;5.726;2022-07-01T15:46:02;4.70;;;1.20;;
52516;SDS011;59374;53.210;5.726;2022-07-01T15:48:30;2.95;;;1.23;;
52516;SDS011;59374;53.210;5.726;2022-07-01T15:50:55;3.53;;;1.50;;
52516;SDS011;59374;53.210;5.726;2022-07-01T15:53:21;5.85;;;1.50;;
52516;SDS011;59374;53.210;5.726;2022-07-01T15:55:47;3.70;;;1.30;;
52516;SDS011;59374;53.210;5.726;2022-07-01T15:58:13;4.40;;;1.50;;
52516;SDS011;59374;53.210;5.726;2022-07-01T16:00:41;4.80;;;1.55;;
52516;SDS011;59374;53.210;5.726;2022-07-01T16:03:09;3.63;;;1.40;;
52516;SDS011;59374;53.210;5.726;2022-07-01T16:05:35;3.15;;;1.45;;